Time;durP1;ratioP1;P1;durP2;ratioP2;P2;SDS_P1;SDS_P2;PMS_P1;PMS_P2;Temp;Humidity;BMP_temperature;BMP_pressure;BME280_temperature;BME280_humidity;BME280_pressure;Samples;Min_cycle;Max_cycle;Signal;HPM_P1;HPM_P2
2021/01/14 00:01:33;;;;;;;37.48;18.90;;;;;;;-2.74;75.86;98062.54;1715263;82;21202;-77
2021/01/14 00:04:00;;;;;;;40.05;19.62;;;;;;;-2.80;76.12;98071.18;1780275;79;21340;-78
2021/01/14 00:06:28;;;;;;;44.83;20.68;;;;;;;-2.76;76.38;98077.64;1783270;79;21086;-78
2021/01/14 00:08:55;;;;;;;42.03;19.42;;;;;;;-2.69;76.40;98074.69;1766652;79;21158;-77
2021/01/14 00:11:22;;;;;;;40.67;18.55;;;;;;;-2.64;76.60;98069.30;1691021;83;21620;-77
2021/01/14 00:13:49;;;;;;;36.68;17.92;;;;;;;-2.56;76.75;98066.63;1772525;79;21521;-77
2021/01/14 00:16:17;;;;;;;39.48;17.80;;;;;;;-2.48;76.69;98062.04;1776257;79;21775;-77
2021/01/14 00:18:44;;;;;;;41.48;19.65;;;;;;;-2.43;76.32;98063.92;1779295;79;21224;-78
2021/01/14 00:21:12;;;;;;;50.17;21.35;;;;;;;-2.40;76.42;98069.30;1784929;79;21157;-77
2021/01/14 00:23:39;;;;;;;46.33;19.05;;;;;;;-2.36;76.39;98065.00;1780106;79;21421;-77
2021/01/14 00:26:08;;;;;;;39.18;19.32;;;;;;;-2.36;75.96;98066.35;1778687;79;21130;-77
2021/01/14 00:28:35;;;;;;;41.80;19.37;;;;;;;-2.43;75.71;98059.06;1785078;79;21166;-77
2021/01/14 00:31:02;;;;;;;46.18;21.20;;;;;;;-2.48;75.74;98062.04;1780977;79;21184;-77
2021/01/14 00:33:30;;;;;;;36.20;18.17;;;;;;;-2.48;75.83;98064.73;1777066;79;21095;-78
2021/01/14 00:35:57;;;;;;;43.15;19.82;;;;;;;-2.47;75.90;98059.60;1778581;79;21106;-78
2021/01/14 00:38:24;;;;;;;48.55;20.30;;;;;;;-2.43;75.93;98063.10;1771936;79;21158;-77
2021/01/14 00:40:52;;;;;;;43.92;20.35;;;;;;;-2.38;76.01;98066.63;1784975;79;21483;-78
2021/01/14 00:43:19;;;;;;;45.00;20.80;;;;;;;-2.35;75.90;98061.21;1694554;83;21174;-78
2021/01/14 00:45:48;;;;;;;37.55;19.07;;;;;;;-2.38;75.62;98065.27;1777574;79;21208;-77
2021/01/14 00:48:15;;;;;;;39.63;18.07;;;;;;;-2.37;75.82;98066.88;1714296;83;21182;-78
2021/01/14 00:50:43;;;;;;;43.30;20.55;;;;;;;-2.33;76.03;98065.80;1716576;83;21221;-77
2021/01/14 00:53:10;;;;;;;39.45;19.00;;;;;;;-2.28;76.31;98068.50;1704025;83;21894;-77
2021/01/14 00:55:38;;;;;;;38.78;19.98;;;;;;;-2.20;76.15;98068.48;1782420;79;21600;-77
2021/01/14 00:58:05;;;;;;;37.45;19.48;;;;;;;-2.17;75.72;98066.62;1782723;79;21580;-77
2021/01/14 01:00:33;;;;;;;31.10;17.45;;;;;;;-2.16;75.54;98068.76;1783548;79;21205;-77
2021/01/14 01:03:00;;;;;;;45.60;22.80;;;;;;;-2.14;75.50;98070.13;1768903;79;21605;-77
2021/01/14 01:05:27;;;;;;;46.13;23.75;;;;;;;-2.11;75.30;98081.72;1778841;79;21363;-78
2021/01/14 01:07:57;;;;;;;40.00;21.30;;;;;;;-2.11;75.23;98076.85;1720088;83;21262;-77
2021/01/14 01:10:26;;;;;;;45.03;21.65;;;;;;;-2.08;75.05;98075.77;1781411;79;21154;-77
2021/01/14 01:12:55;;;;;;;45.20;22.90;;;;;;;-2.08;75.12;98069.55;1714936;83;21187;-77
2021/01/14 01:15:25;;;;;;;44.05;21.95;;;;;;;-2.04;75.10;98069.30;1780119;79;21090;-77
2021/01/14 01:17:52;;;;;;;46.98;22.30;;;;;;;-2.01;75.06;98063.88;1715392;83;21957;-77
2021/01/14 01:20:20;;;;;;;52.93;23.38;;;;;;;-2.01;74.93;98061.99;1703526;83;21211;-77
2021/01/14 01:22:47;;;;;;;52.33;24.07;;;;;;;-1.99;74.99;98063.89;1776366;79;21095;-77
2021/01/14 01:25:14;;;;;;;53.35;23.80;;;;;;;-1.98;74.94;98064.14;1783511;79;21235;-77
2021/01/14 01:27:42;;;;;;;46.90;23.30;;;;;;;-1.95;74.93;98065.50;1777435;79;21146;-78
2021/01/14 01:30:11;;;;;;;55.05;27.95;;;;;;;-1.93;75.00;98066.58;1771019;79;21896;-77
2021/01/14 01:32:39;;;;;;;52.62;24.55;;;;;;;-1.93;75.02;98064.70;1780496;79;21131;-77
2021/01/14 01:35:08;;;;;;;48.98;23.95;;;;;;;-1.93;75.00;98067.93;1777965;79;21120;-77
2021/01/14 01:37:36;;;;;;;59.45;25.88;;;;;;;-1.94;75.04;98067.67;1785922;79;21102;-78
2021/01/14 01:40:05;;;;;;;42.05;21.85;;;;;;;-1.93;75.17;98077.38;1710284;83;21572;-78
2021/01/14 01:42:33;;;;;;;45.00;22.42;;;;;;;-1.93;75.40;98069.28;1782616;79;21369;-77
2021/01/14 01:45:00;;;;;;;47.27;22.50;;;;;;;-1.90;75.42;98072.78;1777854;79;21123;-77
2021/01/14 01:47:33;;;;;;;48.73;23.38;;;;;;;-1.88;75.47;98070.63;1779910;79;21099;-77
2021/01/14 01:50:00;;;;;;;50.28;23.65;;;;;;;-1.85;75.44;98068.72;1783303;79;21130;-78
2021/01/14 01:52:28;;;;;;;51.98;25.97;;;;;;;-1.86;75.28;98060.36;1763773;79;21091;-78
2021/01/14 01:54:55;;;;;;;49.75;25.92;;;;;;;-1.89;75.30;98066.28;1786199;79;21206;-78
2021/01/14 01:57:22;;;;;;;51.15;25.70;;;;;;;-1.98;75.04;98064.14;1764241;79;21628;-78
2021/01/14 01:59:50;;;;;;;57.67;28.60;;;;;;;-2.06;75.34;98064.70;1777903;79;21131;-78
2021/01/14 02:02:27;;;;;;;59.03;27.67;;;;;;;-2.06;75.46;98063.91;1701508;79;21198;-78
2021/01/14 02:04:55;;;;;;;52.70;26.33;;;;;;;-2.05;75.47;98066.87;1786397;79;21139;-78
2021/01/14 02:07:49;;;;;;;51.05;26.50;;;;;;;-2.07;75.64;98072.55;1714841;82;21387;-77
2021/01/14 02:10:42;;;;;;;51.23;26.73;;;;;;;-2.04;76.06;98075.22;1768556;79;21174;-77
2021/01/14 02:13:28;;;;;;;50.88;25.20;;;;;;;-1.96;76.25;98079.54;1773999;80;21108;-77
2021/01/14 02:15:58;;;;;;;49.15;24.70;;;;;;;-1.88;76.11;98074.67;1773780;79;21588;-77
2021/01/14 02:18:25;;;;;;;54.63;26.52;;;;;;;-1.86;76.11;98077.92;1774592;79;21155;-77
2021/01/14 02:21:02;;;;;;;57.20;27.22;;;;;;;-1.81;76.09;98073.04;1780404;79;21812;-78
2021/01/14 02:23:47;;;;;;;62.15;29.90;;;;;;;-1.79;76.15;98070.31;1776669;79;21138;-78
2021/01/14 02:26:25;;;;;;;59.42;26.75;;;;;;;-1.76;75.79;98079.78;1693894;82;21107;-78
2021/01/14 02:28:54;;;;;;;54.00;27.87;;;;;;;-1.78;75.80;98080.06;1777533;79;21154;-77
2021/01/14 02:31:23;;;;;;;61.50;29.95;;;;;;;-1.79;75.86;98079.77;1775686;79;21541;-77
2021/01/14 02:33:51;;;;;;;56.98;29.98;;;;;;;-1.79;76.01;98077.63;1701633;82;21217;-78
2021/01/14 02:36:20;;;;;;;57.85;29.32;;;;;;;-1.78;75.95;98074.66;1779909;79;21173;-78
2021/01/14 02:38:48;;;;;;;62.62;29.70;;;;;;;-1.76;75.96;98077.08;1720350;82;21140;-79
2021/01/14 02:41:15;;;;;;;58.80;30.25;;;;;;;-1.75;75.98;98075.98;1772405;79;21116;-79
2021/01/14 02:43:43;;;;;;;57.70;31.70;;;;;;;-1.80;75.77;98066.55;1771221;79;21173;-78
2021/01/14 02:46:10;;;;;;;58.28;31.05;;;;;;;-1.83;75.83;98062.52;1771304;79;21548;-78
2021/01/14 02:48:42;;;;;;;58.20;30.23;;;;;;;-1.82;75.88;98056.55;1712434;82;21111;-78
2021/01/14 02:51:44;;;;;;;56.68;28.20;;;;;;;-1.80;76.11;98061.14;1778022;79;21575;-78
2021/01/14 02:54:12;;;;;;;53.55;27.70;;;;;;;-1.77;76.22;98060.05;1714390;82;21146;-77
2021/01/14 02:56:42;;;;;;;57.58;29.45;;;;;;;-1.72;76.14;98057.34;1712899;82;21155;-77
2021/01/14 02:59:12;;;;;;;55.00;27.90;;;;;;;-1.71;76.07;98053.55;1711555;82;21162;-78
2021/01/14 03:01:40;;;;;;;54.80;27.80;;;;;;;-1.68;76.04;98055.44;1717171;82;21645;-78
2021/01/14 03:04:10;;;;;;;54.30;26.05;;;;;;;-1.69;75.84;98051.95;1686752;83;21141;-77
2021/01/14 03:06:37;;;;;;;54.63;26.85;;;;;;;-1.67;75.95;98058.42;1704153;82;21119;-77
2021/01/14 03:09:05;;;;;;;54.73;27.82;;;;;;;-1.66;75.68;98054.62;1726989;82;21126;-77
2021/01/14 03:11:35;;;;;;;48.23;25.15;;;;;;;-1.73;75.36;98052.22;1732771;81;21574;-76
2021/01/14 03:14:02;;;;;;;64.17;28.05;;;;;;;-1.79;75.41;98057.37;1712193;82;21210;-77
2021/01/14 03:16:39;;;;;;;58.83;29.57;;;;;;;-1.81;75.51;98063.59;1724558;82;21552;-77
2021/01/14 03:19:06;;;;;;;59.10;29.98;;;;;;;-1.82;75.57;98066.82;1712666;81;21190;-79
2021/01/14 03:21:34;;;;;;;62.40;31.45;;;;;;;-1.84;75.67;98062.23;1744981;81;21087;-77
2021/01/14 03:24:01;;;;;;;61.00;28.75;;;;;;;-1.84;75.64;98063.58;1713009;82;21456;-77
2021/01/14 03:26:28;;;;;;;65.30;28.40;;;;;;;-1.87;75.57;98054.67;1721189;82;21222;-76
2021/01/14 03:28:56;;;;;;;59.60;28.62;;;;;;;-1.84;75.67;98056.83;1724070;82;21161;-76
2021/01/14 03:31:23;;;;;;;56.50;30.10;;;;;;;-1.80;75.95;98052.51;1718753;82;21149;-77
2021/01/14 03:33:50;;;;;;;57.05;28.62;;;;;;;-1.77;76.14;98049.25;1720412;82;21494;-77
2021/01/14 03:36:18;;;;;;;61.63;31.62;;;;;;;-1.72;76.25;98053.83;1712474;82;22080;-77
2021/01/14 03:38:46;;;;;;;60.15;29.63;;;;;;;-1.69;76.03;98056.00;1725565;82;21155;-77
2021/01/14 03:41:16;;;;;;;62.73;29.90;;;;;;;-1.68;75.77;98054.91;1717375;82;21139;-77
2021/01/14 03:43:44;;;;;;;60.38;28.20;;;;;;;-1.68;75.54;98058.95;1721047;82;21174;-77
2021/01/14 03:46:21;;;;;;;59.75;32.03;;;;;;;-1.67;75.72;98068.67;1706525;82;21139;-78
2021/01/14 03:48:49;;;;;;;61.92;30.85;;;;;;;-1.63;75.37;98062.18;1703042;82;21422;-77
2021/01/14 03:51:20;;;;;;;59.75;31.48;;;;;;;-1.64;75.44;98074.08;1766682;79;21098;-77
2021/01/14 03:53:49;;;;;;;58.83;30.88;;;;;;;-1.61;75.69;98071.64;1772939;79;21087;-77
2021/01/14 03:56:17;;;;;;;58.98;29.77;;;;;;;-1.56;75.79;98074.05;1704393;82;21170;-77
2021/01/14 03:58:44;;;;;;;73.20;34.15;;;;;;;-1.54;75.79;98076.75;1711395;82;21146;-77
2021/01/14 04:01:11;;;;;;;61.28;31.12;;;;;;;-1.51;75.72;98074.84;1715923;82;21241;-76
2021/01/14 04:03:42;;;;;;;63.10;29.98;;;;;;;-1.46;75.55;98072.66;1720902;82;21165;-76
2021/01/14 04:06:10;;;;;;;59.85;28.55;;;;;;;-1.45;75.28;98066.16;1788205;79;22220;-76
2021/01/14 04:08:39;;;;;;;55.67;27.95;;;;;;;-1.35;74.76;98069.39;1781923;79;21102;-77
2021/01/14 04:11:11;;;;;;;59.00;28.38;;;;;;;-1.38;74.92;98053.73;1778164;79;21138;-77
2021/01/14 04:13:38;;;;;;;59.45;28.65;;;;;;;-1.43;75.17;98059.16;1704908;83;21200;-77
2021/01/14 04:16:13;;;;;;;62.70;31.87;;;;;;;-1.40;75.07;98059.95;1705942;82;21603;-78
2021/01/14 04:18:41;;;;;;;52.08;27.50;;;;;;;-1.46;75.16;98059.15;1773347;79;21188;-76
2021/01/14 04:21:08;;;;;;;54.10;28.07;;;;;;;-1.53;75.38;98059.45;1777531;79;21548;-77
2021/01/14 04:23:36;;;;;;;58.13;30.05;;;;;;;-1.53;75.20;98061.33;1751456;81;21132;-77
2021/01/14 04:26:04;;;;;;;59.30;29.52;;;;;;;-1.57;75.03;98054.34;1752059;80;21366;-77
2021/01/14 04:28:32;;;;;;;58.95;30.65;;;;;;;-1.60;74.99;98053.52;1754899;81;21133;-78
2021/01/14 04:30:59;;;;;;;63.68;33.15;;;;;;;-1.64;75.20;98057.31;1754143;81;21106;-78
2021/01/14 04:33:26;;;;;;;64.75;31.70;;;;;;;-1.66;75.35;98053.28;1770361;79;21158;-78
2021/01/14 04:35:56;;;;;;;50.50;27.55;;;;;;;-1.69;75.35;98054.66;1777043;79;21125;-78
2021/01/14 04:38:25;;;;;;;54.63;25.12;;;;;;;-1.72;75.45;98053.29;1771856;79;21271;-78
2021/01/14 04:40:57;;;;;;;52.43;25.70;;;;;;;-1.71;75.35;98055.45;1688029;84;21615;-78
2021/01/14 04:43:27;;;;;;;49.58;25.17;;;;;;;-1.74;75.29;98055.45;1776950;79;21114;-78
2021/01/14 04:46:04;;;;;;;57.35;24.27;;;;;;;-1.74;75.21;98062.20;1698237;82;21102;-78
2021/01/14 04:48:36;;;;;;;49.10;24.98;;;;;;;-1.74;75.09;98066.81;1654021;85;21119;-78
2021/01/14 04:51:10;;;;;;;51.70;26.15;;;;;;;-1.75;75.20;98067.88;1664197;85;22293;-78
2021/01/14 04:53:40;;;;;;;53.42;26.20;;;;;;;-1.77;75.20;98068.16;1668666;85;21529;-77
2021/01/14 04:56:14;;;;;;;53.20;25.85;;;;;;;-1.77;75.31;98061.41;1727716;82;21139;-78
2021/01/14 04:58:45;;;;;;;62.03;31.48;;;;;;;-1.75;75.37;98060.59;1725973;82;21108;-78
2021/01/14 05:01:22;;;;;;;59.63;32.17;;;;;;;-1.73;75.33;98069.24;1727816;82;21611;-78
2021/01/14 05:03:52;;;;;;;58.63;30.02;;;;;;;-1.73;75.37;98062.48;1665275;85;22340;-78
2021/01/14 05:06:21;;;;;;;58.83;29.42;;;;;;;-1.70;75.43;98059.77;1727623;82;21134;-78
2021/01/14 05:08:51;;;;;;;53.90;29.12;;;;;;;-1.71;75.48;98053.55;1727752;82;21104;-78
2021/01/14 05:11:20;;;;;;;58.65;29.40;;;;;;;-1.69;75.57;98051.13;1717825;82;21136;-78
2021/01/14 05:13:48;;;;;;;60.88;27.13;;;;;;;-1.55;75.25;98052.16;1662295;85;21200;-78
2021/01/14 05:16:16;;;;;;;57.80;29.10;;;;;;;-1.48;74.97;98054.56;1672083;85;21263;-78
2021/01/14 05:18:43;;;;;;;59.08;28.70;;;;;;;-1.49;75.04;98056.47;1687967;84;21198;-78
2021/01/14 05:21:11;;;;;;;63.52;28.62;;;;;;;-1.51;74.98;98054.58;1723833;82;21569;-78
2021/01/14 05:23:38;;;;;;;62.53;30.65;;;;;;;-1.52;75.00;98057.56;1724272;82;21556;-78
2021/01/14 05:26:07;;;;;;;59.58;28.57;;;;;;;-1.50;74.91;98057.54;1722574;82;21163;-78
2021/01/14 05:28:36;;;;;;;60.08;31.62;;;;;;;-1.50;75.04;98060.23;1725854;82;21762;-77
2021/01/14 05:31:17;;;;;;;55.03;28.65;;;;;;;-1.48;75.06;98056.73;1724650;82;21607;-77
2021/01/14 05:33:58;;;;;;;59.05;30.05;;;;;;;-1.44;75.01;98054.81;1721991;82;21181;-77
2021/01/14 05:36:25;;;;;;;56.05;27.80;;;;;;;-1.44;74.87;98059.69;1660502;85;21564;-77
2021/01/14 05:38:53;;;;;;;60.50;29.85;;;;;;;-1.43;74.69;98061.86;1727670;82;21795;-77
2021/01/14 05:41:21;;;;;;;56.90;27.67;;;;;;;-1.49;74.92;98063.23;1667372;85;21175;-77
2021/01/14 05:43:56;;;;;;;65.22;30.60;;;;;;;-1.50;74.93;98066.20;1675524;82;21115;-78
2021/01/14 05:46:31;;;;;;;60.12;29.80;;;;;;;-1.53;75.00;98064.84;1727178;80;21576;-78
2021/01/14 05:49:01;;;;;;;61.15;30.00;;;;;;;-1.53;75.10;98071.61;1765778;80;21123;-77
2021/01/14 05:51:33;;;;;;;68.65;32.38;;;;;;;-1.55;75.27;98075.12;1700884;83;21131;-77
2021/01/14 05:54:07;;;;;;;71.45;37.40;;;;;;;-1.55;75.39;98075.68;1755187;80;21381;-77
2021/01/14 05:56:49;;;;;;;64.12;33.40;;;;;;;-1.60;75.61;98077.30;1762375;80;21130;-77
2021/01/14 05:59:19;;;;;;;72.62;38.53;;;;;;;-1.69;75.92;98079.49;1701935;83;21198;-78
2021/01/14 06:01:57;;;;;;;77.90;42.90;;;;;;;-1.81;76.60;98081.14;1763805;80;21192;-77
2021/01/14 06:04:29;;;;;;;75.92;43.58;;;;;;;-1.86;76.67;98072.52;1749072;81;21584;-77
2021/01/14 06:07:04;;;;;;;102.30;60.43;;;;;;;-1.88;76.91;98074.67;1750089;81;21218;-77
2021/01/14 06:09:42;;;;;;;95.72;55.15;;;;;;;-1.90;76.98;98071.43;1749999;81;21139;-77
2021/01/14 06:12:11;;;;;;;119.70;63.00;;;;;;;-1.88;77.10;98074.14;1758485;80;21555;-77
2021/01/14 06:14:40;;;;;;;90.32;44.33;;;;;;;-1.90;77.11;98078.18;1765687;80;21576;-77
2021/01/14 06:17:13;;;;;;;75.83;36.03;;;;;;;-1.91;77.21;98070.61;1699989;83;21603;-77
2021/01/14 06:19:41;;;;;;;128.25;59.70;;;;;;;-1.90;77.32;98071.43;1704867;82;21389;-77
2021/01/14 06:22:11;;;;;;;106.12;48.98;;;;;;;-1.88;77.35;98063.88;1710409;83;21568;-77
2021/01/14 06:24:39;;;;;;;96.12;42.95;;;;;;;-1.88;77.36;98062.52;1656412;82;21622;-77
2021/01/14 06:27:10;;;;;;;201.80;86.70;;;;;;;-1.86;77.34;98069.25;1772288;80;21134;-77
2021/01/14 06:29:42;;;;;;;104.32;48.40;;;;;;;-1.86;77.34;98071.95;1756106;80;21522;-77
2021/01/14 06:32:12;;;;;;;163.20;67.17;;;;;;;-1.86;77.51;98067.11;1703422;82;21199;-78
2021/01/14 06:34:51;;;;;;;202.13;77.75;;;;;;;-1.85;77.51;98064.67;1693662;83;21158;-77
2021/01/14 06:37:22;;;;;;;247.88;92.57;;;;;;;-1.87;77.57;98058.20;1697781;82;21540;-77
2021/01/14 06:39:57;;;;;;;127.30;54.10;;;;;;;-1.86;77.69;98060.36;1718161;82;21131;-77
2021/01/14 06:42:37;;;;;;;74.82;36.05;;;;;;;-1.85;77.76;98061.44;1720328;81;21146;-78
2021/01/14 06:45:09;;;;;;;115.50;48.40;;;;;;;-1.81;77.74;98071.16;1724683;82;21378;-78
2021/01/14 06:47:45;;;;;;;179.55;68.95;;;;;;;-1.80;77.74;98071.41;1720628;82;21244;-78
2021/01/14 06:50:20;;;;;;;145.17;58.85;;;;;;;-1.77;77.59;98066.81;1650866;86;21241;-77
2021/01/14 06:52:56;;;;;;;146.13;59.50;;;;;;;-1.76;77.52;98077.90;1713799;83;21563;-78
2021/01/14 06:55:25;;;;;;;608.55;253.52;;;;;;;-1.77;77.51;98076.27;1711793;83;21611;-78
2021/01/14 06:58:04;;;;;;;441.85;152.43;;;;;;;-1.74;77.60;98078.97;1718573;82;22555;-78
2021/01/14 07:00:34;;;;;;;315.68;116.88;;;;;;;-1.72;77.59;98080.30;1711492;82;21123;-78
2021/01/14 07:03:19;;;;;;;141.60;58.65;;;;;;;-1.71;77.43;98077.86;1714229;83;21142;-77
2021/01/14 07:06:07;;;;;;;78.78;38.70;;;;;;;-1.72;77.34;98078.14;1712107;83;21170;-80
2021/01/14 07:09:17;;;;;;;140.70;66.40;;;;;;;-1.72;77.29;98084.36;1717935;82;21209;-79
2021/01/14 07:11:46;;;;;;;113.45;50.80;;;;;;;-1.72;77.27;98085.70;1680409;84;21226;-77
2021/01/14 07:14:15;;;;;;;101.58;52.45;;;;;;;-1.72;77.42;98085.70;1714056;83;21202;-77
2021/01/14 07:16:43;;;;;;;204.25;89.55;;;;;;;-1.73;77.55;98090.03;1712082;83;21620;-77
2021/01/14 07:19:11;;;;;;;111.95;53.70;;;;;;;-1.73;77.63;98089.50;1720421;81;21177;-77
2021/01/14 07:21:43;;;;;;;101.82;49.77;;;;;;;-1.73;77.68;98088.15;1712091;82;21102;-77
2021/01/14 07:24:19;;;;;;;114.62;60.78;;;;;;;-1.69;77.79;98093.81;1689762;83;22189;-78
2021/01/14 07:26:57;;;;;;;106.95;52.90;;;;;;;-1.66;77.88;98087.86;1705779;83;21603;-77
2021/01/14 07:29:32;;;;;;;78.72;44.93;;;;;;;-1.63;77.97;98090.55;1720064;83;21221;-77
2021/01/14 07:32:00;;;;;;;64.65;35.08;;;;;;;-1.61;78.03;98089.20;1704942;83;21597;-79
2021/01/14 07:34:44;;;;;;;73.30;35.35;;;;;;;-1.60;78.05;98097.56;1704836;83;21130;-79
2021/01/14 07:37:15;;;;;;;63.25;34.33;;;;;;;-1.57;78.03;98092.17;1704510;83;21371;-79
2021/01/14 07:39:52;;;;;;;60.92;33.48;;;;;;;-1.56;78.04;98091.61;1699848;83;21131;-78
2021/01/14 07:42:28;;;;;;;79.25;43.60;;;;;;;-1.53;78.12;98096.45;1712075;83;21107;-78
2021/01/14 07:45:01;;;;;;;72.42;38.78;;;;;;;-1.52;78.10;98092.69;1705507;83;21214;-79
2021/01/14 07:47:34;;;;;;;64.65;34.73;;;;;;;-1.49;78.11;98096.19;1715384;81;21163;-78
2021/01/14 07:50:25;;;;;;;65.32;34.92;;;;;;;-1.45;78.13;98089.70;1718481;83;22582;-79
2021/01/14 07:52:57;;;;;;;67.22;35.20;;;;;;;-1.42;78.03;98090.48;1738847;79;21142;-79
2021/01/14 07:55:34;;;;;;;62.90;35.23;;;;;;;-1.40;77.98;98095.08;1776113;79;21115;-80
2021/01/14 07:58:22;;;;;;;84.32;42.62;;;;;;;-1.39;78.00;98100.20;1716346;82;21185;-83
2021/01/14 08:01:07;;;;;;;80.10;45.10;;;;;;;-1.39;77.89;98101.56;1766071;79;21163;-79
2021/01/14 08:03:42;;;;;;;72.40;34.18;;;;;;;-1.37;77.95;98106.16;1700829;83;21254;-80
2021/01/14 08:06:35;;;;;;;68.50;36.85;;;;;;;-1.37;77.91;98105.34;1773461;79;21177;-79
2021/01/14 08:09:07;;;;;;;58.90;32.23;;;;;;;-1.37;77.90;98110.74;1784221;79;21528;-79
2021/01/14 08:11:37;;;;;;;67.45;38.45;;;;;;;-1.38;77.83;98111.27;1698863;84;21206;-77
2021/01/14 08:14:20;;;;;;;63.70;36.73;;;;;;;-1.38;77.88;98110.48;1771574;79;21532;-79
2021/01/14 08:16:56;;;;;;;66.87;36.65;;;;;;;-1.38;78.00;98109.92;1782971;79;21377;-79
2021/01/14 08:19:32;;;;;;;67.70;34.85;;;;;;;-1.35;77.92;98111.28;1755807;79;21380;-78
2021/01/14 08:22:07;;;;;;;66.67;31.93;;;;;;;-1.35;77.88;98115.34;1715396;82;21612;-77
2021/01/14 08:24:45;;;;;;;64.30;33.20;;;;;;;-1.36;77.92;98111.81;1783015;79;21150;-78
2021/01/14 08:27:32;;;;;;;72.85;38.45;;;;;;;-1.33;78.03;98113.70;1782223;79;21265;-77
2021/01/14 08:30:15;;;;;;;74.45;37.15;;;;;;;-1.31;77.99;98118.30;1773136;79;22695;-77
2021/01/14 08:33:04;;;;;;;74.00;39.10;;;;;;;-1.30;78.05;98121.27;1780774;79;21142;-77
2021/01/14 08:35:41;;;;;;;79.95;39.98;;;;;;;-1.31;78.00;98124.50;1776127;79;21175;-77
2021/01/14 08:38:13;;;;;;;90.97;48.70;;;;;;;-1.32;78.00;98117.48;1766902;79;21201;-77
2021/01/14 08:40:42;;;;;;;79.32;39.08;;;;;;;-1.33;78.02;98121.25;1712987;82;21138;-77
2021/01/14 08:43:22;;;;;;;88.65;46.63;;;;;;;-1.35;78.04;98119.39;1778752;79;21169;-79
2021/01/14 08:45:55;;;;;;;83.50;41.75;;;;;;;-1.32;78.25;98126.95;1773558;79;21175;-78
2021/01/14 08:48:29;;;;;;;74.85;42.25;;;;;;;-1.30;78.22;98119.37;1773535;79;21175;-78
2021/01/14 08:51:04;;;;;;;89.62;42.33;;;;;;;-1.27;78.33;98116.12;1702195;82;21182;-79
2021/01/14 08:53:36;;;;;;;87.55;41.23;;;;;;;-1.27;78.30;98109.36;1715152;82;21106;-79
2021/01/14 08:56:12;;;;;;;78.12;39.08;;;;;;;-1.21;78.24;98107.42;1768119;79;22287;-79
2021/01/14 08:58:45;;;;;;;81.92;43.78;;;;;;;-1.20;78.30;98107.71;1780753;79;21143;-79
2021/01/14 09:01:20;;;;;;;72.58;37.58;;;;;;;-1.17;78.35;98109.04;1773942;79;21155;-79
2021/01/14 09:03:49;;;;;;;71.60;38.98;;;;;;;-1.15;78.34;98111.75;1772347;79;21127;-78
2021/01/14 09:06:19;;;;;;;78.47;38.70;;;;;;;-1.13;78.18;98119.58;1712951;82;21281;-79
2021/01/14 09:08:57;;;;;;;83.12;39.65;;;;;;;-1.12;78.28;98110.37;1777050;79;21202;-78
2021/01/14 09:11:24;;;;;;;76.28;39.90;;;;;;;-1.08;78.37;98108.74;1786992;79;21168;-78
2021/01/14 09:14:14;;;;;;;73.30;37.53;;;;;;;-1.04;78.29;98105.73;1765535;79;21151;-78
2021/01/14 09:16:44;;;;;;;77.00;37.88;;;;;;;-1.00;78.27;98106.81;1766029;79;21106;-78
2021/01/14 09:19:15;;;;;;;80.17;36.23;;;;;;;-0.96;78.26;98103.55;1784651;79;21023;-78
2021/01/14 09:21:44;;;;;;;83.45;40.00;;;;;;;-0.93;78.30;98108.39;1694432;82;21108;-78
2021/01/14 09:24:13;;;;;;;76.92;39.15;;;;;;;-0.89;78.22;98104.05;1763461;79;21177;-79
2021/01/14 09:26:41;;;;;;;76.87;39.13;;;;;;;-0.86;78.20;98095.37;1780483;79;21182;-78
2021/01/14 09:29:12;;;;;;;85.57;41.08;;;;;;;-0.82;78.18;98100.47;1768756;79;21118;-79
2021/01/14 09:31:40;;;;;;;77.90;40.80;;;;;;;-0.81;78.07;98102.11;1774798;79;21126;-78
2021/01/14 09:34:08;;;;;;;73.90;37.28;;;;;;;-0.81;78.03;98099.41;1700099;82;21793;-79
2021/01/14 09:36:35;;;;;;;78.80;39.45;;;;;;;-0.81;78.05;98102.11;1690143;82;21158;-79
2021/01/14 09:39:07;;;;;;;78.92;37.13;;;;;;;-0.79;78.06;98101.30;1705156;82;21120;-78
2021/01/14 09:41:38;;;;;;;76.20;37.23;;;;;;;-0.78;78.02;98102.08;1694898;82;21179;-78
2021/01/14 09:44:13;;;;;;;74.17;38.02;;;;;;;-0.76;78.07;98093.97;1770308;79;21153;-79
2021/01/14 09:46:44;;;;;;;80.65;40.78;;;;;;;-0.73;78.03;98093.94;1776123;79;22274;-78
2021/01/14 09:49:14;;;;;;;78.33;39.45;;;;;;;-0.74;77.90;98091.80;1768458;79;21150;-79
2021/01/14 09:51:43;;;;;;;83.85;41.08;;;;;;;-0.75;77.92;98092.08;1775498;79;21134;-78
2021/01/14 09:54:12;;;;;;;84.97;40.03;;;;;;;-0.78;77.95;98104.25;1771512;79;21145;-78
2021/01/14 09:56:51;;;;;;;80.53;42.85;;;;;;;-0.78;77.99;98108.31;1770286;79;21095;-77
2021/01/14 09:59:41;;;;;;;82.33;40.80;;;;;;;-0.78;78.03;98104.25;1778133;79;21299;-78
2021/01/14 10:02:19;;;;;;;79.35;41.02;;;;;;;-0.76;78.02;98103.97;1711102;82;21138;-77
2021/01/14 10:04:54;;;;;;;105.60;58.78;;;;;;;-0.77;78.15;98099.09;1695476;82;21174;-77
2021/01/14 10:07:21;;;;;;;90.15;50.25;;;;;;;-0.76;78.22;98089.09;1721365;82;21640;-77
2021/01/14 10:09:51;;;;;;;99.45;56.60;;;;;;;-0.75;78.18;98088.81;1775511;79;21155;-78
2021/01/14 10:12:18;;;;;;;164.05;93.97;;;;;;;-0.76;78.06;98089.91;1768822;79;21423;-76
2021/01/14 10:14:48;;;;;;;115.52;61.60;;;;;;;-0.75;78.06;98091.52;1767358;79;21187;-77
2021/01/14 10:17:17;;;;;;;107.87;61.48;;;;;;;-0.76;78.07;98091.27;1669728;82;21173;-79
2021/01/14 10:19:51;;;;;;;97.00;52.08;;;;;;;-0.77;78.11;98085.56;1780660;79;21170;-77
2021/01/14 10:22:20;;;;;;;105.45;55.12;;;;;;;-0.78;78.13;98083.96;1776226;79;21106;-77
2021/01/14 10:24:47;;;;;;;92.25;49.73;;;;;;;-0.78;78.19;98090.73;1765873;79;22343;-77
2021/01/14 10:27:17;;;;;;;99.65;55.83;;;;;;;-0.77;78.18;98090.98;1677343;82;22108;-78
2021/01/14 10:29:46;;;;;;;104.03;55.55;;;;;;;-0.74;78.20;98090.98;1703608;82;21655;-78
2021/01/14 10:32:16;;;;;;;140.03;74.25;;;;;;;-0.75;78.20;98089.38;1705071;82;21083;-78
2021/01/14 10:34:53;;;;;;;91.20;47.38;;;;;;;-0.75;78.21;98082.05;1766548;79;21162;-77
2021/01/14 10:37:30;;;;;;;103.42;54.13;;;;;;;-0.75;78.15;98079.34;1773120;79;21368;-77
2021/01/14 10:40:02;;;;;;;85.30;45.67;;;;;;;-0.76;78.16;98074.21;1769114;79;21142;-77
2021/01/14 10:42:36;;;;;;;87.30;47.00;;;;;;;-0.79;78.19;98078.83;1765842;79;21452;-77
2021/01/14 10:45:10;;;;;;;91.55;49.38;;;;;;;-0.80;78.31;98067.20;1709696;82;21135;-77
2021/01/14 10:47:40;;;;;;;92.22;44.08;;;;;;;-0.80;78.41;98075.31;1769096;79;21166;-78
2021/01/14 10:50:27;;;;;;;80.57;41.68;;;;;;;-0.79;78.43;98072.07;1760382;81;21436;-78
2021/01/14 10:52:59;;;;;;;83.60;41.83;;;;;;;-0.78;78.42;98070.97;1737673;81;21492;-78
2021/01/14 10:55:28;;;;;;;84.25;43.45;;;;;;;-0.77;78.45;98070.69;1736437;81;21115;-78
2021/01/14 10:57:58;;;;;;;89.72;44.00;;;;;;;-0.75;78.49;98066.38;1691795;84;21136;-78
2021/01/14 11:00:30;;;;;;;102.58;47.95;;;;;;;-0.75;78.47;98065.81;1736865;81;21178;-78
2021/01/14 11:03:14;;;;;;;87.82;44.40;;;;;;;-0.75;78.40;98064.46;1748927;81;21273;-78
2021/01/14 11:05:41;;;;;;;93.40;45.17;;;;;;;-0.77;78.46;98058.52;1752223;81;21577;-78
2021/01/14 11:08:10;;;;;;;126.70;65.15;;;;;;;-0.77;78.59;98064.49;1752237;81;21099;-78
2021/01/14 11:10:39;;;;;;;93.25;46.23;;;;;;;-0.78;78.68;98059.61;1752202;81;21147;-78
2021/01/14 11:13:17;;;;;;;95.62;45.28;;;;;;;-0.75;78.73;98058.27;1751330;81;21133;-78
2021/01/14 11:15:44;;;;;;;90.67;39.83;;;;;;;-0.72;78.69;98051.47;1752023;81;21808;-78
2021/01/14 11:18:12;;;;;;;110.25;53.25;;;;;;;-0.72;78.73;98047.41;1737503;81;21150;-78
2021/01/14 11:20:39;;;;;;;145.55;67.78;;;;;;;-0.71;78.71;98055.23;1752014;81;21546;-79
2021/01/14 11:23:07;;;;;;;131.60;62.03;;;;;;;-0.69;78.82;98050.90;1751117;80;21721;-78
2021/01/14 11:25:36;;;;;;;106.78;48.63;;;;;;;-0.67;78.80;98050.08;1752290;81;21565;-78
2021/01/14 11:28:04;;;;;;;91.70;44.05;;;;;;;-0.66;78.80;98050.33;1737035;81;21388;-79
2021/01/14 11:30:32;;;;;;;100.72;46.55;;;;;;;-0.66;78.79;98052.50;1734569;81;21126;-78
2021/01/14 11:32:59;;;;;;;93.80;45.48;;;;;;;-0.65;78.82;98050.61;1734367;81;21118;-78
2021/01/14 11:35:27;;;;;;;103.38;47.73;;;;;;;-0.64;78.83;98052.22;1735222;81;21209;-78
2021/01/14 11:37:54;;;;;;;157.82;67.85;;;;;;;-0.64;78.78;98048.97;1728998;81;21198;-78